• Join FlightAware (Why Join?)
  • Login
  • US Flag 
 
09:53PM EST


 

Airport Tracker/Info


-or-


 

Live Flight TrackerFlight Track Log ✈ JBU732 ✈ 10-Jun-2013 ✈ TJBQ / BQN - KMCO

Flight Track Log - Related Links

Times and Time Zones

All times are in EDT time to prevent confusion due to time zone crossing. See the JBU732 flight status page for this flight to view local times or setup timezone preferences in your user account.

Time Position Orientation Groundspeed Altitude Reporting Facility
EDT Latitude Longitude Course Direction KTS MPH feet Rate Location/Type
11:26AM 18.5167 -67.1167 309° West 250 288 2,000  Level San Juan Center
11:27AM 18.7035 -67.3808 311° West  Level FlightAware Approximate
11:27AM 18.5667 -67.2000 302° West 310 357 5,300  Level San Juan Center
11:28AM 18.7781 -67.4838 305° West  Level FlightAware Approximate
11:28AM 18.6167 -67.2667 308° West 290 334 8,400  Level San Juan Center
11:29AM 18.8526 -67.5867 309° West  Level FlightAware Approximate
11:29AM 18.6667 -67.3333 308° West 300 345 10,800  Level San Juan Center
11:30AM 18.9308 -67.6870 309° West  Level FlightAware Approximate
11:30AM 18.7167 -67.4167 302° West 340 391 12,600  Level San Juan Center
11:31AM 19.0089 -67.7875 309° West  Level FlightAware Approximate
11:31AM 18.7833 -67.4833 317° Northwest 350 403 15,400  Level San Juan Center
11:32AM 18.8333 -67.5667 302° West 360 414 17,100 1,680 Climbing San Juan Center
11:33AM 18.9000 -67.6500 310° West 360 414 18,900 1,680 Climbing San Juan Center
11:34AM 18.9667 -67.7500 305° West 380 437 20,600 1,680 Climbing San Juan Center
11:35AM 19.0333 -67.8333 310° West 390 449 22,300 1,500 Climbing San Juan Center
11:36AM 19.1000 -67.9333 305° West 410 472 23,700 1,560 Climbing San Juan Center
11:37AM 19.1833 -68.0167 317° Northwest 410 472 25,500 1,320 Climbing San Juan Center
11:38AM 19.2500 -68.1167 305° West 410 472 26,400 900 Climbing San Juan Center
11:39AM 19.3167 -68.2167 305° West 430 495 27,400 1,200 Climbing San Juan Center
11:40AM 19.4000 -68.3167 311° West 440 506 28,800 1,200 Climbing San Juan Center
11:41AM 19.4667 -68.4167 305° West 430 495 29,900 1,200 Climbing San Juan Center
11:42AM 19.5500 -68.5333 307° West 430 495 31,300 1,020 Climbing San Juan Center
11:43AM 19.6864 -68.7008 311° West 481 554 32,500 720 Climbing Miami Center
11:44AM 19.7586 -68.8086 305° West 455 524 33,200 660 Climbing Miami Center
11:45AM 19.8386 -68.9097 310° West 455 524 33,900 360 Climbing Miami Center
11:46AM 19.9047 -69.0225 302° West 455 524 34,000 60 Climbing Miami Center
11:47AM 19.9708 -69.1397 301° West 455 524 34,100 480 Climbing Miami Center
11:48AM 20.0428 -69.2481 305° West 455 524 35,000 840 Climbing Miami Center
11:49AM 20.1106 -69.3614 303° West 455 524 35,800 480 Climbing Miami Center
11:50AM 20.1744 -69.4747 301° West 455 524 36,000 60 Climbing Miami Center
11:51AM 20.2439 -69.5836 304° West 455 524 36,000  Level Miami Center
11:52AM 20.3117 -69.6947 303° West 455 524 36,000  Level Miami Center
11:53AM 20.3769 -69.8017 303° West 450 518 36,000  Level Miami Center
11:54AM 20.4444 -69.9153 302° West 450 518 36,000  Level Miami Center
11:55AM 20.5161 -70.0267 305° West 450 518 36,000  Level Miami Center
11:56AM 20.5817 -70.1431 301° West 450 518 36,000  Level Miami Center
11:57AM 20.6531 -70.2547 304° West 455 524 36,000  Level Miami Center
11:58AM 20.7206 -70.3708 302° West 460 529 36,000  Level Miami Center
11:59AM 20.7900 -70.4850 303° West 460 529 36,000  Level Miami Center
12:00PM 20.8569 -70.5972 303° West 460 529 36,000  Level Miami Center
12:01PM 20.9242 -70.7094 303° West 455 524 36,000  Level Miami Center
12:02PM 20.9933 -70.8242 303° West 455 524 36,000  Level Miami Center
12:03PM 21.0603 -70.9389 302° West 455 524 36,000  Level Miami Center
12:04PM 21.1269 -71.0514 302° West 455 524 36,000  Level Miami Center
12:05PM 21.1853 -71.1558 301° West 455 524 36,000  Level Miami Center
12:06PM 21.2542 -71.2731 302° West 455 524 36,000  Level Miami Center
12:07PM 21.3231 -71.3925 302° West 460 529 36,000  Level Miami Center
12:08PM 21.3939 -71.5097 303° West 460 529 36,000  Level Miami Center
12:09PM 21.4625 -71.6253 303° West 460 529 36,000  Level Miami Center
12:10PM 21.5289 -71.7386 302° West 460 529 36,000  Level Miami Center
12:11PM 21.5978 -71.8586 302° West 465 535 36,000  Level Miami Center
12:12PM 21.6639 -71.9722 302° West 465 535 36,000  Level Miami Center
12:13PM 21.7303 -72.0903 301° West 465 535 36,000  Level Miami Center
12:14PM 21.7986 -72.2064 302° West 465 535 36,000  Level Miami Center
12:15PM 21.8667 -72.3225 302° West 465 535 36,000  Level Miami Center
12:16PM 21.9328 -72.4433 301° West 465 535 36,000  Level Miami Center
12:17PM 22.0008 -72.5575 303° West 465 535 36,000  Level Miami Center
12:18PM 22.0667 -72.6739 301° West 465 535 36,000  Level Miami Center
12:19PM 22.1367 -72.7906 303° West 465 535 36,000  Level Miami Center
12:20PM 22.2044 -72.9072 302° West 465 535 36,000  Level Miami Center
12:21PM 22.2681 -73.0264 300° West 465 535 36,000  Level Miami Center
12:22PM 22.3336 -73.1456 301° West 465 535 36,000  Level Miami Center
12:23PM 22.4014 -73.2650 302° West 465 535 36,000  Level Miami Center
12:24PM 22.4708 -73.3844 302° West 465 535 36,000  Level Miami Center
12:25PM 22.5403 -73.5017 303° West 465 535 36,000  Level Miami Center
12:26PM 22.6078 -73.6192 302° West 465 535 36,000  Level Miami Center
12:27PM 22.6750 -73.7389 301° West 465 535 36,000  Level Miami Center
12:28PM 22.7400 -73.8567 301° West 465 535 36,000  Level Miami Center
12:29PM 22.8050 -73.9747 301° West 465 535 36,000  Level Miami Center
12:30PM 22.8739 -74.0925 302° West 465 535 36,000  Level Miami Center
12:31PM 22.9389 -74.2086 301° West 459 528 36,000  Level Miami Center
12:32PM 23.0075 -74.3244 303° West 459 528 36,000  Level Miami Center
12:33PM 23.0722 -74.4428 301° West 459 528 36,100  Climbing Miami Center
12:34PM 23.1347 -74.5592 300° West 464 534 36,000 -60 Descending Miami Center
12:35PM 23.1992 -74.6733 302° West 459 528 36,000  Level Miami Center
12:36PM 23.2633 -74.7875 301° West 454 522 36,000  Level Miami Center
12:37PM 23.3297 -74.9061 301° West 454 522 36,000  Level Miami Center
12:38PM 23.3939 -75.0208 301° West 454 522 36,000  Level Miami Center
12:39PM 23.4578 -75.1375 301° West 449 517 36,000  Level Miami Center
12:40PM 23.5219 -75.2500 302° West 444 511 36,000  Level Miami Center
12:41PM 23.5836 -75.3672 300° West 444 511 36,000  Level Miami Center
12:42PM 23.6494 -75.4842 302° West 444 511 36,000  Level Miami Center
12:43PM 23.7153 -75.6017 301° West 444 511 36,000  Level Miami Center
12:44PM 23.7769 -75.7214 299° West 444 511 36,000  Level Miami Center
12:45PM 23.8406 -75.8411 300° West 444 511 36,000  Level Miami Center
12:46PM 23.9019 -75.9589 300° West 444 511 36,000  Level Miami Center
12:47PM 23.9653 -76.0744 301° West 444 511 36,000  Level Miami Center
12:48PM 24.0264 -76.1900 300° West 439 505 36,000  Level Miami Center
12:49PM 24.0897 -76.3058 301° West 439 505 36,000  Level Miami Center
12:50PM 24.1506 -76.4239 299° West 439 505 36,000  Level Miami Center
12:51PM 24.2136 -76.5375 301° West 439 505 36,000  Level Miami Center
12:52PM 24.2722 -76.6514 299° West 439 505 36,000  Level Miami Center
12:53PM 24.3372 -76.7700 301° West 439 505 36,100  Climbing Miami Center
12:54PM 24.3978 -76.8886 299° West 439 505 36,000 -60 Descending Miami Center
12:55PM 24.4583 -77.0028 300° West 439 505 36,000  Level Miami Center
12:56PM 24.5208 -77.1214 300° West 439 505 36,000  Level Miami Center
12:57PM 24.5833 -77.2381 301° West 439 505 36,000  Level Miami Center
12:58PM 24.6436 -77.3572 299° West 439 505 36,000  Level Miami Center
12:59PM 24.7058 -77.4764 300° West 439 505 36,000  Level Miami Center
01:00PM 24.7661 -77.5981 299° West 445 512 36,000  Level Miami Center
01:01PM 24.8300 -77.7175 301° West 450 518 36,000  Level Miami Center
01:02PM 24.8942 -77.8394 300° West 455 524 36,000  Level Miami Center
01:03PM 24.9561 -77.9567 300° West 455 524 36,000  Level Miami Center
01:04PM 25.0178 -78.0744 300° West 455 524 36,000  Level Miami Center
01:05PM 25.0794 -78.1942 300° West 450 518 36,000  Level Miami Center
01:06PM 25.0911 -78.2141 300° West  Level FlightAware Approximate
01:06PM 25.1453 -78.3211 300° West 439 505 36,000  Level Miami Center
01:07PM 25.2067 -78.4367 300° West 439 505 36,000  Level Miami Center
01:08PM 25.2681 -78.5547 300° West 439 505 36,000  Level Miami Center
01:09PM 25.3253 -78.6750 298° West 439 505 36,000  Level Miami Center
01:11PM 25.3958 -78.8161 299° West  Level FlightAware Approximate
01:11PM 25.4494 -78.9094 299° West 439 505 36,000  Level Miami Center
01:12PM 25.5022 -79.0161 299° West 439 505 36,000  Level Miami Center
01:13PM 25.5611 -79.1325 299° West 439 505 36,000 -60 Level Miami Center
01:14PM 25.6200 -79.2511 299° West 439 505 35,900  Descending Miami Center
01:15PM 25.6786 -79.3697 299° West 439 505 36,000  Climbing Miami Center
01:16PM 25.7350 -79.4861 298° West 439 505 36,000 -300 Level Miami Center
01:17PM 25.7956 -79.6075 299° West 439 505 35,400 -840 Descending Miami Center
01:18PM 25.8558 -79.7244 300° West 439 505 34,400 -1,020 Descending Miami Center
01:19PM 25.9161 -79.8436 299° West 445 512 33,400 -1,020 Descending Miami Center
01:20PM 25.9783 -79.9653 300° West 445 512 32,400 -1,200 Descending Miami Center
01:21PM 26.0447 -80.0803 303° West 445 512 31,100 -1,260 Descending Miami Center
01:22PM 26.1347 -80.1775 316° Northwest 445 512 29,900 -1,080 Descending Miami Center
01:23PM 26.2539 -80.2597 328° Northwest 448 516 29,000 -1,440 Descending Miami Center
01:24PM 26.3714 -80.3189 336° Northwest 453 521 27,100 -1,560 Descending Miami Center
01:25PM 26.4831 -80.3731 337° Northwest 448 516 25,900 -1,140 Descending Miami Center
01:26PM 26.5964 -80.4297 336° Northwest 441 507 24,900 -960 Descending Miami Center
01:27PM 26.6975 -80.4794 336° Northwest 434 499 24,000 -1,020 Descending Miami Center
01:28PM 26.8150 -80.5414 335° Northwest 434 499 22,900 -1,020 Descending Miami Center
01:29PM 26.9242 -80.5983 335° Northwest 434 499 22,000 -960 Descending Miami Center
01:30PM 27.0272 -80.6506 336° Northwest 428 493 21,000 -1,020 Descending Miami Center
01:31PM 27.1303 -80.7028 336° Northwest 417 480 20,000 -1,020 Descending Miami Center
01:32PM 27.2378 -80.7414 342° North 412 474 19,000 -1,140 Descending Miami Center
01:33PM 27.3353 -80.7681 346° North 400 460 17,800 -1,500 Descending Miami Center
01:34PM 27.4533 -80.8072 344° North 394 453 16,100 -1,380 Descending Miami Center
01:35PM 27.5500 -80.8575 335° Northwest 394 453 15,100 -960 Descending Miami Center
01:36PM 27.6464 -80.9194 330° Northwest 388 447 14,200 -840 Descending Miami Center
01:37PM 27.7386 -80.9767 331° Northwest 388 447 13,500 -1,320 Descending Miami Center
01:38PM 27.8275 -81.0103 342° North 376 433 11,600 -840 Descending Miami Center
01:40PM 28.0167 -81.1333 330° Northwest 387 445 11,100 -480 Descending Orlando TRACON
01:41PM 28.1167 -81.1667 344° North 362 417 10,300 -840 Descending Orlando TRACON
01:42PM 28.2167 -81.1833 352° North 304 350 9,400 -600 Descending Orlando TRACON
01:43PM 28.3000 -81.1833 360° North 306 352 9,000 -180 Descending Orlando TRACON
01:44PM 28.3667 -81.1833 360° North 253 291 9,100 -600 Climbing Orlando TRACON
01:45PM 28.4500 -81.1833 360° North 255 293 7,900 -1,320 Descending Orlando TRACON
01:46PM 28.5167 -81.1833 360° North 249 287 6,400 -1,560 Descending Orlando TRACON
01:47PM 28.5667 -81.2167 330° Northwest 239 275 4,800 -1,680 Descending Orlando TRACON
01:48PM 28.5833 -81.2833 286° West 222 255 3,100 -1,140 Descending Orlando TRACON
01:49PM 28.5500 -81.3333 233° Southwest 196 226 2,600 -900 Descending Orlando TRACON
01:50PM 28.5000 -81.3333 180° South 156 180 1,300 -1,320 Descending Orlando TRACON
01:52PM 28.4294 -81.3090 199° South  Level Estimated
01:59PM 28.4294 -81.3090 199° South  Level Estimated
02:00PM 28.4294 -81.3090 199° South  Level Estimated